MRDD weather

Don Diego Airport
Limón, Limon, Costa Rica

Public forecast

Using degrees Celsius for public forecast. Weather courtesy of forecast.io.

METAR (pilot weather report)

Report is more than 6 hours old.

Closest report is Cap Manuel Niño International Airport, 22.5 nm (41.6 km) ESE. Retrieved 2019/02/07 11:00 UTC (2 months ago):

MPCH 071100Z 00000KT 9999 SCT020 BKN080 20/19 Q1016

TAF (pilot weather forecast)

Forecast is more than 6 hours old.

Closest forecast is Limon International Airport, 25.8 nm (47.8 km) NNW. Retrieved 2019/03/26 18:22 UTC (8 hours ago):

TAF MRLM 261700Z 2618/2718 09005KT 9999 FEW020 BKN100 TX27/2618Z TN21/2710Z BECMG 2621/2623 RA BKN015 BECMG 2700/2702 26003KT TEMPO 2706/2715 DZ BECMG 2716/2718 08004KT